sensor_id;sensor_type;location;lat;lon;timestamp;P1;durP1;ratioP1;P2;durP2;ratioP2
72113;SDS011;59989;46.220;19.888;2022-10-16T00:02:53;0.70;;;0.30;;
72113;SDS011;59989;46.220;19.888;2022-10-16T00:05:58;1.05;;;0.30;;
72113;SDS011;59989;46.220;19.888;2022-10-16T00:09:02;2.42;;;1.17;;
72113;SDS011;59989;46.220;19.888;2022-10-16T00:12:04;1.10;;;0.40;;
72113;SDS011;59989;46.220;19.888;2022-10-16T00:15:08;3.33;;;0.50;;
72113;SDS011;59989;46.220;19.888;2022-10-16T00:18:11;0.90;;;0.37;;
72113;SDS011;59989;46.220;19.888;2022-10-16T00:21:16;0.55;;;0.20;;
72113;SDS011;59989;46.220;19.888;2022-10-16T00:24:20;0.50;;;0.20;;
72113;SDS011;59989;46.220;19.888;2022-10-16T00:27:22;1.10;;;0.43;;
72113;SDS011;59989;46.220;19.888;2022-10-16T00:30:25;1.13;;;0.33;;
72113;SDS011;59989;46.220;19.888;2022-10-16T00:33:29;0.90;;;0.30;;
72113;SDS011;59989;46.220;19.888;2022-10-16T00:36:32;0.80;;;0.30;;
72113;SDS011;59989;46.220;19.888;2022-10-16T00:39:34;1.15;;;0.38;;
72113;SDS011;59989;46.220;19.888;2022-10-16T00:42:37;0.80;;;0.30;;
72113;SDS011;59989;46.220;19.888;2022-10-16T00:45:40;0.40;;;0.20;;
72113;SDS011;59989;46.220;19.888;2022-10-16T00:48:45;1.00;;;0.30;;
72113;SDS011;59989;46.220;19.888;2022-10-16T00:52:06;1.48;;;0.55;;
72113;SDS011;59989;46.220;19.888;2022-10-16T00:55:09;0.60;;;0.20;;
72113;SDS011;59989;46.220;19.888;2022-10-16T00:58:11;1.17;;;0.40;;
72113;SDS011;59989;46.220;19.888;2022-10-16T01:01:14;1.67;;;0.50;;
72113;SDS011;59989;46.220;19.888;2022-10-16T01:04:17;1.20;;;0.33;;
72113;SDS011;59989;46.220;19.888;2022-10-16T01:10:44;0.82;;;0.30;;
72113;SDS011;59989;46.220;19.888;2022-10-16T01:13:53;0.60;;;0.20;;
72113;SDS011;59989;46.220;19.888;2022-10-16T01:16:59;1.07;;;0.40;;
72113;SDS011;59989;46.220;19.888;2022-10-16T01:20:20;0.90;;;0.30;;
72113;SDS011;59989;46.220;19.888;2022-10-16T01:33:51;1.97;;;0.90;;
72113;SDS011;59989;46.220;19.888;2022-10-16T01:36:57;0.60;;;0.20;;
72113;SDS011;59989;46.220;19.888;2022-10-16T01:40:07;0.73;;;0.22;;
72113;SDS011;59989;46.220;19.888;2022-10-16T01:43:16;1.83;;;0.30;;
72113;SDS011;59989;46.220;19.888;2022-10-16T01:46:22;1.50;;;0.75;;
72113;SDS011;59989;46.220;19.888;2022-10-16T01:49:26;0.70;;;0.20;;
72113;SDS011;59989;46.220;19.888;2022-10-16T01:52:32;2.10;;;0.40;;
72113;SDS011;59989;46.220;19.888;2022-10-16T01:55:39;0.77;;;0.30;;
72113;SDS011;59989;46.220;19.888;2022-10-16T01:58:51;0.95;;;0.30;;
72113;SDS011;59989;46.220;19.888;2022-10-16T02:01:58;0.70;;;0.25;;
72113;SDS011;59989;46.220;19.888;2022-10-16T02:05:09;0.63;;;0.20;;
72113;SDS011;59989;46.220;19.888;2022-10-16T02:08:18;1.27;;;0.50;;
72113;SDS011;59989;46.220;19.888;2022-10-16T02:11:21;1.00;;;0.38;;
72113;SDS011;59989;46.220;19.888;2022-10-16T02:14:23;1.30;;;0.60;;
72113;SDS011;59989;46.220;19.888;2022-10-16T02:17:26;0.70;;;0.25;;
72113;SDS011;59989;46.220;19.888;2022-10-16T02:20:30;1.13;;;0.40;;
72113;SDS011;59989;46.220;19.888;2022-10-16T02:23:58;1.33;;;0.50;;
72113;SDS011;59989;46.220;19.888;2022-10-16T02:27:10;1.65;;;0.52;;
72113;SDS011;59989;46.220;19.888;2022-10-16T02:30:35;0.60;;;0.25;;
72113;SDS011;59989;46.220;19.888;2022-10-16T02:33:58;0.70;;;0.20;;
72113;SDS011;59989;46.220;19.888;2022-10-16T02:37:03;0.80;;;0.23;;
72113;SDS011;59989;46.220;19.888;2022-10-16T02:40:07;0.80;;;0.30;;
72113;SDS011;59989;46.220;19.888;2022-10-16T02:43:10;1.67;;;0.85;;
72113;SDS011;59989;46.220;19.888;2022-10-16T02:46:13;0.63;;;0.20;;
72113;SDS011;59989;46.220;19.888;2022-10-16T02:49:16;1.25;;;0.40;;
72113;SDS011;59989;46.220;19.888;2022-10-16T02:52:18;0.50;;;0.20;;
72113;SDS011;59989;46.220;19.888;2022-10-16T02:55:21;0.87;;;0.40;;
72113;SDS011;59989;46.220;19.888;2022-10-16T02:58:23;0.73;;;0.20;;
72113;SDS011;59989;46.220;19.888;2022-10-16T03:01:26;1.50;;;0.75;;
72113;SDS011;59989;46.220;19.888;2022-10-16T03:04:28;0.77;;;0.20;;
72113;SDS011;59989;46.220;19.888;2022-10-16T03:07:31;2.40;;;1.17;;
72113;SDS011;59989;46.220;19.888;2022-10-16T03:10:33;0.60;;;0.20;;
72113;SDS011;59989;46.220;19.888;2022-10-16T03:13:35;1.35;;;0.63;;
72113;SDS011;59989;46.220;19.888;2022-10-16T03:16:38;1.45;;;0.30;;
72113;SDS011;59989;46.220;19.888;2022-10-16T03:19:40;1.65;;;0.90;;
72113;SDS011;59989;46.220;19.888;2022-10-16T03:22:43;0.67;;;0.27;;
72113;SDS011;59989;46.220;19.888;2022-10-16T03:25:45;1.00;;;0.50;;
72113;SDS011;59989;46.220;19.888;2022-10-16T03:28:49;0.52;;;0.22;;
72113;SDS011;59989;46.220;19.888;2022-10-16T03:31:52;0.60;;;0.20;;
72113;SDS011;59989;46.220;19.888;2022-10-16T03:34:54;0.70;;;0.20;;
72113;SDS011;59989;46.220;19.888;2022-10-16T03:37:58;1.27;;;0.63;;
72113;SDS011;59989;46.220;19.888;2022-10-16T03:41:00;1.00;;;0.33;;
72113;SDS011;59989;46.220;19.888;2022-10-16T03:44:03;1.45;;;0.60;;
72113;SDS011;59989;46.220;19.888;2022-10-16T03:47:05;1.20;;;0.40;;
72113;SDS011;59989;46.220;19.888;2022-10-16T03:50:08;0.60;;;0.20;;
72113;SDS011;59989;46.220;19.888;2022-10-16T03:53:11;1.23;;;0.73;;
72113;SDS011;59989;46.220;19.888;2022-10-16T03:56:13;0.77;;;0.33;;
72113;SDS011;59989;46.220;19.888;2022-10-16T03:59:16;0.85;;;0.30;;
72113;SDS011;59989;46.220;19.888;2022-10-16T04:02:18;4.22;;;1.05;;
72113;SDS011;59989;46.220;19.888;2022-10-16T04:05:20;0.60;;;0.20;;
72113;SDS011;59989;46.220;19.888;2022-10-16T04:08:23;0.83;;;0.33;;
72113;SDS011;59989;46.220;19.888;2022-10-16T04:11:25;1.77;;;0.77;;
72113;SDS011;59989;46.220;19.888;2022-10-16T04:14:27;3.47;;;1.67;;
72113;SDS011;59989;46.220;19.888;2022-10-16T04:17:30;1.45;;;0.60;;
72113;SDS011;59989;46.220;19.888;2022-10-16T04:20:33;2.45;;;1.05;;
72113;SDS011;59989;46.220;19.888;2022-10-16T04:23:36;0.50;;;0.20;;
72113;SDS011;59989;46.220;19.888;2022-10-16T04:26:38;0.60;;;0.20;;
72113;SDS011;59989;46.220;19.888;2022-10-16T04:29:40;1.88;;;1.70;;
72113;SDS011;59989;46.220;19.888;2022-10-16T04:32:43;5.07;;;1.65;;
72113;SDS011;59989;46.220;19.888;2022-10-16T04:35:45;1.40;;;0.85;;
72113;SDS011;59989;46.220;19.888;2022-10-16T04:38:48;1.20;;;0.83;;
72113;SDS011;59989;46.220;19.888;2022-10-16T04:41:51;0.50;;;0.20;;
72113;SDS011;59989;46.220;19.888;2022-10-16T04:44:53;3.10;;;1.02;;
72113;SDS011;59989;46.220;19.888;2022-10-16T04:47:59;3.00;;;2.03;;
72113;SDS011;59989;46.220;19.888;2022-10-16T04:51:02;1.67;;;0.85;;
72113;SDS011;59989;46.220;19.888;2022-10-16T04:54:04;1.47;;;1.03;;
72113;SDS011;59989;46.220;19.888;2022-10-16T04:57:06;1.03;;;0.50;;
72113;SDS011;59989;46.220;19.888;2022-10-16T05:00:09;1.45;;;0.60;;
72113;SDS011;59989;46.220;19.888;2022-10-16T05:03:12;4.28;;;1.42;;
72113;SDS011;59989;46.220;19.888;2022-10-16T05:06:15;2.20;;;1.45;;
72113;SDS011;59989;46.220;19.888;2022-10-16T05:09:18;0.60;;;0.20;;
72113;SDS011;59989;46.220;19.888;2022-10-16T05:12:20;0.50;;;0.20;;
72113;SDS011;59989;46.220;19.888;2022-10-16T05:15:22;2.15;;;1.33;;
72113;SDS011;59989;46.220;19.888;2022-10-16T05:18:27;0.60;;;0.20;;
72113;SDS011;59989;46.220;19.888;2022-10-16T05:21:29;0.52;;;0.20;;
72113;SDS011;59989;46.220;19.888;2022-10-16T05:24:31;0.50;;;0.20;;
72113;SDS011;59989;46.220;19.888;2022-10-16T05:27:34;3.57;;;1.07;;
72113;SDS011;59989;46.220;19.888;2022-10-16T05:30:37;0.70;;;0.20;;
72113;SDS011;59989;46.220;19.888;2022-10-16T05:33:39;1.65;;;0.60;;
72113;SDS011;59989;46.220;19.888;2022-10-16T05:36:42;0.75;;;0.30;;
72113;SDS011;59989;46.220;19.888;2022-10-16T05:39:47;0.40;;;0.20;;
72113;SDS011;59989;46.220;19.888;2022-10-16T05:42:49;0.50;;;0.20;;
72113;SDS011;59989;46.220;19.888;2022-10-16T05:45:55;1.27;;;0.70;;
72113;SDS011;59989;46.220;19.888;2022-10-16T05:49:02;1.52;;;0.98;;
72113;SDS011;59989;46.220;19.888;2022-10-16T05:52:05;0.65;;;0.20;;
72113;SDS011;59989;46.220;19.888;2022-10-16T05:55:07;1.47;;;0.50;;
72113;SDS011;59989;46.220;19.888;2022-10-16T05:58:10;0.97;;;0.33;;
72113;SDS011;59989;46.220;19.888;2022-10-16T06:01:14;1.33;;;0.32;;
72113;SDS011;59989;46.220;19.888;2022-10-16T06:04:18;0.95;;;0.35;;
72113;SDS011;59989;46.220;19.888;2022-10-16T06:07:21;0.63;;;0.22;;
72113;SDS011;59989;46.220;19.888;2022-10-16T06:10:25;0.90;;;0.30;;
72113;SDS011;59989;46.220;19.888;2022-10-16T06:13:27;0.70;;;0.20;;
72113;SDS011;59989;46.220;19.888;2022-10-16T06:16:30;1.02;;;0.32;;
72113;SDS011;59989;46.220;19.888;2022-10-16T06:19:32;0.70;;;0.20;;
72113;SDS011;59989;46.220;19.888;2022-10-16T06:22:34;0.60;;;0.20;;
72113;SDS011;59989;46.220;19.888;2022-10-16T06:25:37;0.83;;;0.27;;
72113;SDS011;59989;46.220;19.888;2022-10-16T06:28:39;0.70;;;0.20;;
72113;SDS011;59989;46.220;19.888;2022-10-16T06:31:42;0.98;;;0.32;;
72113;SDS011;59989;46.220;19.888;2022-10-16T06:34:45;0.70;;;0.22;;
72113;SDS011;59989;46.220;19.888;2022-10-16T06:37:47;1.17;;;0.47;;
72113;SDS011;59989;46.220;19.888;2022-10-16T06:40:49;1.00;;;0.40;;
72113;SDS011;59989;46.220;19.888;2022-10-16T06:43:52;1.27;;;0.50;;
72113;SDS011;59989;46.220;19.888;2022-10-16T06:46:54;0.80;;;0.30;;
72113;SDS011;59989;46.220;19.888;2022-10-16T06:49:57;0.60;;;0.20;;
72113;SDS011;59989;46.220;19.888;2022-10-16T06:52:59;1.50;;;0.57;;
72113;SDS011;59989;46.220;19.888;2022-10-16T06:59:11;0.80;;;0.30;;
72113;SDS011;59989;46.220;19.888;2022-10-16T07:02:13;0.80;;;0.30;;
72113;SDS011;59989;46.220;19.888;2022-10-16T07:05:15;1.83;;;0.75;;
72113;SDS011;59989;46.220;19.888;2022-10-16T07:08:18;1.83;;;0.63;;
72113;SDS011;59989;46.220;19.888;2022-10-16T07:11:21;1.20;;;0.30;;
72113;SDS011;59989;46.220;19.888;2022-10-16T07:14:25;0.70;;;0.20;;
72113;SDS011;59989;46.220;19.888;2022-10-16T07:17:27;0.70;;;0.25;;
72113;SDS011;59989;46.220;19.888;2022-10-16T07:20:30;1.10;;;0.40;;
72113;SDS011;59989;46.220;19.888;2022-10-16T07:23:33;0.73;;;0.22;;
72113;SDS011;59989;46.220;19.888;2022-10-16T07:26:36;0.97;;;0.40;;
72113;SDS011;59989;46.220;19.888;2022-10-16T07:29:41;1.07;;;0.37;;
72113;SDS011;59989;46.220;19.888;2022-10-16T07:32:43;1.35;;;0.40;;
72113;SDS011;59989;46.220;19.888;2022-10-16T07:35:49;2.80;;;1.90;;
72113;SDS011;59989;46.220;19.888;2022-10-16T07:38:53;1.05;;;0.30;;
72113;SDS011;59989;46.220;19.888;2022-10-16T07:42:01;1.00;;;0.30;;
72113;SDS011;59989;46.220;19.888;2022-10-16T07:45:03;0.80;;;0.30;;
72113;SDS011;59989;46.220;19.888;2022-10-16T07:48:06;0.90;;;0.30;;
72113;SDS011;59989;46.220;19.888;2022-10-16T07:51:09;1.27;;;0.50;;
72113;SDS011;59989;46.220;19.888;2022-10-16T07:54:12;0.90;;;0.30;;
72113;SDS011;59989;46.220;19.888;2022-10-16T07:57:14;1.30;;;0.40;;
72113;SDS011;59989;46.220;19.888;2022-10-16T08:00:21;0.90;;;0.30;;
72113;SDS011;59989;46.220;19.888;2022-10-16T08:03:24;1.73;;;0.80;;
72113;SDS011;59989;46.220;19.888;2022-10-16T08:06:27;0.80;;;0.30;;
72113;SDS011;59989;46.220;19.888;2022-10-16T08:09:30;0.95;;;0.35;;
72113;SDS011;59989;46.220;19.888;2022-10-16T08:12:33;1.00;;;0.40;;
72113;SDS011;59989;46.220;19.888;2022-10-16T08:15:35;1.43;;;0.50;;
72113;SDS011;59989;46.220;19.888;2022-10-16T08:18:38;5.10;;;0.57;;
72113;SDS011;59989;46.220;19.888;2022-10-16T08:21:42;2.08;;;0.98;;
72113;SDS011;59989;46.220;19.888;2022-10-16T08:24:44;1.35;;;0.43;;
72113;SDS011;59989;46.220;19.888;2022-10-16T08:27:47;1.20;;;0.50;;
72113;SDS011;59989;46.220;19.888;2022-10-16T08:30:49;1.63;;;0.50;;
72113;SDS011;59989;46.220;19.888;2022-10-16T08:33:51;1.45;;;0.45;;
72113;SDS011;59989;46.220;19.888;2022-10-16T08:36:54;1.83;;;0.57;;
72113;SDS011;59989;46.220;19.888;2022-10-16T08:39:57;1.83;;;0.90;;
72113;SDS011;59989;46.220;19.888;2022-10-16T08:49:23;1.00;;;0.30;;
72113;SDS011;59989;46.220;19.888;2022-10-16T08:52:29;1.02;;;0.38;;
72113;SDS011;59989;46.220;19.888;2022-10-16T08:55:48;1.88;;;0.63;;
72113;SDS011;59989;46.220;19.888;2022-10-16T08:58:53;1.87;;;0.57;;
72113;SDS011;59989;46.220;19.888;2022-10-16T09:02:03;1.37;;;0.40;;
72113;SDS011;59989;46.220;19.888;2022-10-16T09:12:22;1.75;;;0.70;;
72113;SDS011;59989;46.220;19.888;2022-10-16T09:19:03;1.03;;;0.33;;
72113;SDS011;59989;46.220;19.888;2022-10-16T09:22:16;0.93;;;0.40;;
72113;SDS011;59989;46.220;19.888;2022-10-16T09:25:20;3.47;;;0.90;;
72113;SDS011;59989;46.220;19.888;2022-10-16T09:28:23;1.83;;;0.82;;
72113;SDS011;59989;46.220;19.888;2022-10-16T09:31:25;1.70;;;0.50;;
72113;SDS011;59989;46.220;19.888;2022-10-16T09:34:35;1.33;;;0.47;;
72113;SDS011;59989;46.220;19.888;2022-10-16T09:37:42;1.05;;;0.40;;
72113;SDS011;59989;46.220;19.888;2022-10-16T09:40:46;1.58;;;0.60;;
72113;SDS011;59989;46.220;19.888;2022-10-16T09:44:03;1.63;;;0.45;;
72113;SDS011;59989;46.220;19.888;2022-10-16T09:47:18;1.88;;;0.60;;
72113;SDS011;59989;46.220;19.888;2022-10-16T09:50:25;1.63;;;0.63;;
72113;SDS011;59989;46.220;19.888;2022-10-16T09:53:43;2.10;;;0.50;;
72113;SDS011;59989;46.220;19.888;2022-10-16T09:56:48;2.45;;;1.05;;
72113;SDS011;59989;46.220;19.888;2022-10-16T10:00:15;1.73;;;0.63;;
72113;SDS011;59989;46.220;19.888;2022-10-16T10:03:36;1.30;;;0.40;;
72113;SDS011;59989;46.220;19.888;2022-10-16T10:06:44;1.73;;;0.70;;
72113;SDS011;59989;46.220;19.888;2022-10-16T10:09:48;1.35;;;0.43;;
72113;SDS011;59989;46.220;19.888;2022-10-16T10:12:50;1.58;;;0.52;;
72113;SDS011;59989;46.220;19.888;2022-10-16T10:15:54;1.83;;;0.50;;
72113;SDS011;59989;46.220;19.888;2022-10-16T10:19:00;2.03;;;0.63;;
72113;SDS011;59989;46.220;19.888;2022-10-16T10:22:13;1.13;;;0.40;;
72113;SDS011;59989;46.220;19.888;2022-10-16T10:32:11;2.05;;;0.90;;
72113;SDS011;59989;46.220;19.888;2022-10-16T10:35:38;1.70;;;0.63;;
72113;SDS011;59989;46.220;19.888;2022-10-16T10:51:51;1.50;;;0.50;;
72113;SDS011;59989;46.220;19.888;2022-10-16T10:55:23;1.53;;;0.50;;
72113;SDS011;59989;46.220;19.888;2022-10-16T11:01:41;1.65;;;0.60;;
72113;SDS011;59989;46.220;19.888;2022-10-16T11:04:59;2.38;;;0.80;;
72113;SDS011;59989;46.220;19.888;2022-10-16T11:11:40;1.50;;;0.50;;
72113;SDS011;59989;46.220;19.888;2022-10-16T11:14:48;2.10;;;0.73;;
72113;SDS011;59989;46.220;19.888;2022-10-16T11:18:05;2.20;;;0.90;;
72113;SDS011;59989;46.220;19.888;2022-10-16T11:21:14;1.63;;;0.50;;
72113;SDS011;59989;46.220;19.888;2022-10-16T11:24:23;2.13;;;0.85;;
72113;SDS011;59989;46.220;19.888;2022-10-16T11:27:51;1.73;;;0.60;;
72113;SDS011;59989;46.220;19.888;2022-10-16T11:34:12;2.63;;;1.05;;
72113;SDS011;59989;46.220;19.888;2022-10-16T11:37:40;1.92;;;0.75;;
72113;SDS011;59989;46.220;19.888;2022-10-16T11:40:47;1.13;;;0.40;;
72113;SDS011;59989;46.220;19.888;2022-10-16T11:57:53;1.77;;;0.60;;
72113;SDS011;59989;46.220;19.888;2022-10-16T12:07:18;1.30;;;0.50;;
72113;SDS011;59989;46.220;19.888;2022-10-16T12:10:27;1.77;;;0.70;;
72113;SDS011;59989;46.220;19.888;2022-10-16T12:13:42;1.20;;;0.43;;
72113;SDS011;59989;46.220;19.888;2022-10-16T12:16:55;1.80;;;0.70;;
72113;SDS011;59989;46.220;19.888;2022-10-16T12:20:32;1.60;;;0.55;;
72113;SDS011;59989;46.220;19.888;2022-10-16T12:23:38;1.42;;;0.52;;
72113;SDS011;59989;46.220;19.888;2022-10-16T12:26:48;2.72;;;0.80;;
72113;SDS011;59989;46.220;19.888;2022-10-16T12:29:57;1.70;;;0.60;;
72113;SDS011;59989;46.220;19.888;2022-10-16T12:36:41;1.88;;;0.60;;
72113;SDS011;59989;46.220;19.888;2022-10-16T12:39:44;2.45;;;0.90;;
72113;SDS011;59989;46.220;19.888;2022-10-16T12:42:47;3.22;;;1.30;;
72113;SDS011;59989;46.220;19.888;2022-10-16T12:45:58;2.80;;;1.10;;
72113;SDS011;59989;46.220;19.888;2022-10-16T12:52:26;3.10;;;1.20;;
72113;SDS011;59989;46.220;19.888;2022-10-16T12:55:42;2.80;;;1.20;;
72113;SDS011;59989;46.220;19.888;2022-10-16T13:06:11;3.67;;;1.53;;
72113;SDS011;59989;46.220;19.888;2022-10-16T13:16:18;3.63;;;1.50;;
72113;SDS011;59989;46.220;19.888;2022-10-16T13:29:18;3.92;;;1.70;;
72113;SDS011;59989;46.220;19.888;2022-10-16T13:32:22;3.78;;;1.50;;
72113;SDS011;59989;46.220;19.888;2022-10-16T13:35:28;3.42;;;1.42;;
72113;SDS011;59989;46.220;19.888;2022-10-16T13:38:33;1.80;;;0.67;;
72113;SDS011;59989;46.220;19.888;2022-10-16T13:41:37;2.45;;;0.70;;
72113;SDS011;59989;46.220;19.888;2022-10-16T13:44:43;2.10;;;0.70;;
72113;SDS011;59989;46.220;19.888;2022-10-16T13:47:48;1.70;;;0.52;;
72113;SDS011;59989;46.220;19.888;2022-10-16T13:51:00;1.85;;;0.70;;
72113;SDS011;59989;46.220;19.888;2022-10-16T13:54:09;1.57;;;0.53;;
72113;SDS011;59989;46.220;19.888;2022-10-16T13:57:14;1.50;;;0.55;;
72113;SDS011;59989;46.220;19.888;2022-10-16T14:00:28;1.90;;;0.68;;
72113;SDS011;59989;46.220;19.888;2022-10-16T14:03:32;1.15;;;0.40;;
72113;SDS011;59989;46.220;19.888;2022-10-16T14:06:40;1.98;;;0.70;;
72113;SDS011;59989;46.220;19.888;2022-10-16T14:09:47;2.70;;;0.70;;
72113;SDS011;59989;46.220;19.888;2022-10-16T14:13:04;1.85;;;0.70;;
72113;SDS011;59989;46.220;19.888;2022-10-16T14:16:09;5.68;;;1.58;;
72113;SDS011;59989;46.220;19.888;2022-10-16T14:19:26;1.63;;;0.60;;
72113;SDS011;59989;46.220;19.888;2022-10-16T14:22:35;1.15;;;0.40;;
72113;SDS011;59989;46.220;19.888;2022-10-16T14:25:44;1.80;;;0.60;;
72113;SDS011;59989;46.220;19.888;2022-10-16T14:28:47;1.40;;;0.40;;
72113;SDS011;59989;46.220;19.888;2022-10-16T14:31:55;2.47;;;1.13;;
72113;SDS011;59989;46.220;19.888;2022-10-16T14:34:59;1.85;;;0.65;;
72113;SDS011;59989;46.220;19.888;2022-10-16T14:38:02;2.45;;;0.80;;
72113;SDS011;59989;46.220;19.888;2022-10-16T14:41:06;1.47;;;0.50;;
72113;SDS011;59989;46.220;19.888;2022-10-16T14:44:09;1.42;;;0.40;;
72113;SDS011;59989;46.220;19.888;2022-10-16T14:47:13;1.58;;;0.57;;
72113;SDS011;59989;46.220;19.888;2022-10-16T14:50:20;1.00;;;0.30;;
72113;SDS011;59989;46.220;19.888;2022-10-16T14:53:22;1.70;;;0.50;;
72113;SDS011;59989;46.220;19.888;2022-10-16T14:56:27;1.10;;;0.40;;
72113;SDS011;59989;46.220;19.888;2022-10-16T14:59:38;2.00;;;0.55;;
72113;SDS011;59989;46.220;19.888;2022-10-16T15:02:42;1.20;;;0.40;;
72113;SDS011;59989;46.220;19.888;2022-10-16T15:05:46;1.85;;;0.55;;
72113;SDS011;59989;46.220;19.888;2022-10-16T15:08:48;1.95;;;0.60;;
72113;SDS011;59989;46.220;19.888;2022-10-16T15:11:51;1.70;;;0.70;;
72113;SDS011;59989;46.220;19.888;2022-10-16T15:14:53;1.50;;;0.50;;
72113;SDS011;59989;46.220;19.888;2022-10-16T15:17:56;1.52;;;0.60;;
72113;SDS011;59989;46.220;19.888;2022-10-16T15:20:59;2.30;;;0.90;;
72113;SDS011;59989;46.220;19.888;2022-10-16T15:24:01;1.58;;;0.50;;
72113;SDS011;59989;46.220;19.888;2022-10-16T15:27:04;3.00;;;0.90;;
72113;SDS011;59989;46.220;19.888;2022-10-16T15:30:06;1.60;;;0.50;;
72113;SDS011;59989;46.220;19.888;2022-10-16T15:33:11;1.58;;;0.50;;
72113;SDS011;59989;46.220;19.888;2022-10-16T15:36:23;1.58;;;0.57;;
72113;SDS011;59989;46.220;19.888;2022-10-16T15:39:35;1.10;;;0.40;;
72113;SDS011;59989;46.220;19.888;2022-10-16T15:42:42;1.63;;;0.53;;
72113;SDS011;59989;46.220;19.888;2022-10-16T15:45:57;0.98;;;0.30;;
72113;SDS011;59989;46.220;19.888;2022-10-16T15:49:03;3.25;;;1.05;;
72113;SDS011;59989;46.220;19.888;2022-10-16T15:52:06;1.48;;;0.35;;
72113;SDS011;59989;46.220;19.888;2022-10-16T15:55:08;3.57;;;1.17;;
72113;SDS011;59989;46.220;19.888;2022-10-16T15:58:12;8.47;;;1.37;;
72113;SDS011;59989;46.220;19.888;2022-10-16T16:01:15;5.10;;;1.63;;
72113;SDS011;59989;46.220;19.888;2022-10-16T16:04:18;9.40;;;1.98;;
72113;SDS011;59989;46.220;19.888;2022-10-16T16:07:40;6.05;;;2.85;;
72113;SDS011;59989;46.220;19.888;2022-10-16T16:10:43;8.40;;;3.17;;
72113;SDS011;59989;46.220;19.888;2022-10-16T16:13:46;7.57;;;1.50;;
72113;SDS011;59989;46.220;19.888;2022-10-16T16:16:48;3.42;;;1.58;;
72113;SDS011;59989;46.220;19.888;2022-10-16T16:19:50;2.80;;;1.02;;
72113;SDS011;59989;46.220;19.888;2022-10-16T16:22:53;3.85;;;1.42;;
72113;SDS011;59989;46.220;19.888;2022-10-16T16:26:15;3.07;;;1.53;;
72113;SDS011;59989;46.220;19.888;2022-10-16T16:29:34;2.90;;;1.30;;
72113;SDS011;59989;46.220;19.888;2022-10-16T16:32:36;5.13;;;1.45;;
72113;SDS011;59989;46.220;19.888;2022-10-16T16:35:39;6.55;;;2.60;;
72113;SDS011;59989;46.220;19.888;2022-10-16T16:38:41;6.00;;;2.50;;
72113;SDS011;59989;46.220;19.888;2022-10-16T16:41:44;8.13;;;2.80;;
72113;SDS011;59989;46.220;19.888;2022-10-16T16:44:47;5.27;;;2.07;;
72113;SDS011;59989;46.220;19.888;2022-10-16T16:47:50;4.47;;;2.42;;
72113;SDS011;59989;46.220;19.888;2022-10-16T16:50:52;2.22;;;0.98;;
72113;SDS011;59989;46.220;19.888;2022-10-16T16:53:56;5.03;;;2.97;;
72113;SDS011;59989;46.220;19.888;2022-10-16T16:56:59;9.73;;;3.23;;
72113;SDS011;59989;46.220;19.888;2022-10-16T17:00:03;3.27;;;1.43;;
72113;SDS011;59989;46.220;19.888;2022-10-16T17:03:06;3.30;;;0.90;;
72113;SDS011;59989;46.220;19.888;2022-10-16T17:06:09;2.35;;;0.95;;
72113;SDS011;59989;46.220;19.888;2022-10-16T17:09:12;6.82;;;1.52;;
72113;SDS011;59989;46.220;19.888;2022-10-16T17:12:15;5.87;;;2.03;;
72113;SDS011;59989;46.220;19.888;2022-10-16T17:15:17;6.43;;;1.67;;
72113;SDS011;59989;46.220;19.888;2022-10-16T17:18:20;4.00;;;1.50;;
72113;SDS011;59989;46.220;19.888;2022-10-16T17:21:24;5.65;;;3.65;;
72113;SDS011;59989;46.220;19.888;2022-10-16T17:24:27;2.17;;;1.00;;
72113;SDS011;59989;46.220;19.888;2022-10-16T17:27:30;4.30;;;1.60;;
72113;SDS011;59989;46.220;19.888;2022-10-16T17:30:32;0.70;;;0.27;;
72113;SDS011;59989;46.220;19.888;2022-10-16T17:33:36;2.53;;;1.23;;
72113;SDS011;59989;46.220;19.888;2022-10-16T17:36:39;2.63;;;1.58;;
72113;SDS011;59989;46.220;19.888;2022-10-16T17:39:45;3.50;;;1.55;;
72113;SDS011;59989;46.220;19.888;2022-10-16T17:42:47;5.23;;;2.90;;
72113;SDS011;59989;46.220;19.888;2022-10-16T17:45:50;14.60;;;7.07;;
72113;SDS011;59989;46.220;19.888;2022-10-16T17:48:53;11.07;;;5.47;;
72113;SDS011;59989;46.220;19.888;2022-10-16T17:51:56;5.82;;;3.00;;
72113;SDS011;59989;46.220;19.888;2022-10-16T17:55:00;7.50;;;2.65;;
72113;SDS011;59989;46.220;19.888;2022-10-16T17:58:02;9.23;;;3.13;;
72113;SDS011;59989;46.220;19.888;2022-10-16T18:01:13;4.30;;;1.87;;
72113;SDS011;59989;46.220;19.888;2022-10-16T18:04:24;4.80;;;2.42;;
72113;SDS011;59989;46.220;19.888;2022-10-16T18:07:26;4.90;;;2.13;;
72113;SDS011;59989;46.220;19.888;2022-10-16T18:10:29;2.92;;;1.42;;
72113;SDS011;59989;46.220;19.888;2022-10-16T18:13:32;3.07;;;1.10;;
72113;SDS011;59989;46.220;19.888;2022-10-16T18:16:34;4.13;;;1.50;;
72113;SDS011;59989;46.220;19.888;2022-10-16T18:19:38;7.97;;;2.75;;
72113;SDS011;59989;46.220;19.888;2022-10-16T18:22:40;3.28;;;1.63;;
72113;SDS011;59989;46.220;19.888;2022-10-16T18:25:48;2.85;;;1.40;;
72113;SDS011;59989;46.220;19.888;2022-10-16T18:28:52;3.90;;;3.30;;
72113;SDS011;59989;46.220;19.888;2022-10-16T18:31:56;3.27;;;1.03;;
72113;SDS011;59989;46.220;19.888;2022-10-16T18:34:59;2.10;;;0.93;;
72113;SDS011;59989;46.220;19.888;2022-10-16T18:38:01;2.65;;;0.90;;
72113;SDS011;59989;46.220;19.888;2022-10-16T18:41:04;2.10;;;0.70;;
72113;SDS011;59989;46.220;19.888;2022-10-16T18:44:07;3.80;;;1.80;;
72113;SDS011;59989;46.220;19.888;2022-10-16T18:47:11;3.37;;;1.90;;
72113;SDS011;59989;46.220;19.888;2022-10-16T18:50:14;1.70;;;0.60;;
72113;SDS011;59989;46.220;19.888;2022-10-16T18:53:17;1.90;;;0.73;;
72113;SDS011;59989;46.220;19.888;2022-10-16T18:56:20;2.28;;;0.70;;
72113;SDS011;59989;46.220;19.888;2022-10-16T18:59:24;2.30;;;0.93;;
72113;SDS011;59989;46.220;19.888;2022-10-16T19:02:27;5.17;;;1.60;;
72113;SDS011;59989;46.220;19.888;2022-10-16T19:05:32;2.83;;;0.95;;
72113;SDS011;59989;46.220;19.888;2022-10-16T19:08:35;3.58;;;1.60;;
72113;SDS011;59989;46.220;19.888;2022-10-16T19:11:40;1.73;;;0.55;;
72113;SDS011;59989;46.220;19.888;2022-10-16T19:14:43;1.10;;;0.50;;
72113;SDS011;59989;46.220;19.888;2022-10-16T19:17:45;2.00;;;1.20;;
72113;SDS011;59989;46.220;19.888;2022-10-16T19:20:48;0.80;;;0.30;;
72113;SDS011;59989;46.220;19.888;2022-10-16T19:23:54;2.33;;;0.77;;
72113;SDS011;59989;46.220;19.888;2022-10-16T19:26:58;0.85;;;0.32;;
72113;SDS011;59989;46.220;19.888;2022-10-16T19:30:00;1.70;;;0.60;;
72113;SDS011;59989;46.220;19.888;2022-10-16T19:33:05;1.00;;;0.30;;
72113;SDS011;59989;46.220;19.888;2022-10-16T19:39:15;3.00;;;1.17;;
72113;SDS011;59989;46.220;19.888;2022-10-16T19:42:25;0.93;;;0.30;;
72113;SDS011;59989;46.220;19.888;2022-10-16T19:45:28;0.90;;;0.30;;
72113;SDS011;59989;46.220;19.888;2022-10-16T19:48:31;1.73;;;0.80;;
72113;SDS011;59989;46.220;19.888;2022-10-16T19:51:33;1.52;;;0.55;;
72113;SDS011;59989;46.220;19.888;2022-10-16T19:54:36;2.15;;;0.77;;
72113;SDS011;59989;46.220;19.888;2022-10-16T19:57:40;1.65;;;0.63;;
72113;SDS011;59989;46.220;19.888;2022-10-16T20:00:42;10.23;;;2.23;;
72113;SDS011;59989;46.220;19.888;2022-10-16T20:03:45;1.20;;;0.47;;
72113;SDS011;59989;46.220;19.888;2022-10-16T20:06:49;1.52;;;0.57;;
72113;SDS011;59989;46.220;19.888;2022-10-16T20:09:52;0.80;;;0.30;;
72113;SDS011;59989;46.220;19.888;2022-10-16T20:12:54;1.05;;;0.40;;
72113;SDS011;59989;46.220;19.888;2022-10-16T20:15:57;1.60;;;0.70;;
72113;SDS011;59989;46.220;19.888;2022-10-16T20:18:59;1.53;;;0.77;;